Weather reports worldwide

Advertisment
Concordia Sagittaria, Italy (16107): temperature & dewpoint: 13.08.2019 00:00:00 - 19.08.2019 00:00:00 (CEST)Concordia Sagittaria, Italy (16107): wind speed: 13.08.2019 00:00:00 - 19.08.2019 00:00:00 (CEST)Concordia Sagittaria, Italy (16107): wind direction: 13.08.2019 00:00:00 - 19.08.2019 00:00:00 (CEST)Concordia Sagittaria, Italy (16107): reduced air pressure: 13.08.2019 00:00:00 - 19.08.2019 00:00:00 (CEST)
Date & Time tt [°C] td [°C] ff [km/h] ff [kn] dd ppp [hPa]
19.08.2019 00:00:00 - - - - - -
18.08.2019 23:00:00 19,9 18,1 0 0 N 1020,2
18.08.2019 22:00:00 20,8 18,5 0 0 N 1020,0
18.08.2019 21:00:00 22,4 18,7 0 0 N 1019,5
18.08.2019 20:00:00 25,0 20,0 5 3 SSE 1019,4
18.08.2019 19:00:00 26,6 20,6 11 6 SE 1019,5
18.08.2019 18:00:00 27,3 21,3 8 4 ESE 1019,7
18.08.2019 17:00:00 27,6 20,6 8 4 SE 1019,9
18.08.2019 16:00:00 28,1 21,3 11 6 SE 1020,1
18.08.2019 15:00:00 28,5 22,0 8 4 ESE 1020,4
18.08.2019 14:00:00 27,5 20,5 16 9 ESE 1020,4
18.08.2019 13:00:00 27,7 21,7 5 3 ESE 1020,5
18.08.2019 12:00:00 26,9 20,7 4 2 NNW 1020,5
18.08.2019 11:00:00 25,8 21,0 4 2 E 1020,6
18.08.2019 10:00:00 23,6 20,3 4 2 E 1020,7
18.08.2019 09:00:00 20,8 19,0 5 3 N 1020,6
18.08.2019 08:00:00 18,5 16,8 8 4 N 1020,4
18.08.2019 07:00:00 17,0 15,3 4 2 NNW 1020,2
18.08.2019 06:00:00 17,0 15,3 5 3 N 1020,1
18.08.2019 05:00:00 17,0 15,3 4 2 N 1020,2
18.08.2019 04:00:00 17,1 15,4 0 0 N 1020,4
18.08.2019 03:00:00 17,1 15,4 0 0 N 1020,6
18.08.2019 02:00:00 17,6 15,9 0 0 N 1020,6
18.08.2019 01:00:00 17,9 16,2 0 0 N 1020,5
18.08.2019 00:00:00 18,4 16,5 4 2 WNW 1020,3
17.08.2019 23:00:00 19,0 16,4 4 2 W 1020,4
17.08.2019 22:00:00 20,3 16,7 0 0 N 1020,2
17.08.2019 21:00:00 21,2 16,3 0 0 N 1020,3
17.08.2019 20:00:00 24,0 15,9 5 3 SSE 1019,9
17.08.2019 19:00:00 24,9 16,0 5 3 SSE 1020,0
17.08.2019 18:00:00 - - - - - -
17.08.2019 17:00:00 27,7 17,2 9 5 SE 1020,4
17.08.2019 16:00:00 27,9 18,5 9 5 SW 1020,5
17.08.2019 15:00:00 27,6 16,2 2 1 WSW 1020,6
17.08.2019 14:00:00 27,9 16,8 9 5 WSW 1021,2
17.08.2019 13:00:00 27,1 16,6 4 2 NNE 1021,2
17.08.2019 12:00:00 26,3 17,9 4 2 N 1021,6
17.08.2019 11:00:00 24,9 17,3 2 1 N 1021,8
17.08.2019 10:00:00 22,9 17,9 8 4 N 1021,7
17.08.2019 09:00:00 21,0 18,7 5 3 N 1021,6
17.08.2019 08:00:00 18,3 16,6 4 2 NNW 1021,4
17.08.2019 07:00:00 16,1 14,4 5 3 N 1021,4
17.08.2019 06:00:00 15,8 14,1 4 2 N 1021,0
17.08.2019 05:00:00 16,3 14,6 5 3 NW 1021,2
17.08.2019 04:00:00 16,2 14,5 5 3 N 1021,0
17.08.2019 03:00:00 16,8 15,1 5 3 N 1021,5
17.08.2019 02:00:00 17,0 15,3 5 3 N 1021,8
17.08.2019 01:00:00 17,8 16,1 5 3 NW 1021,9
17.08.2019 00:00:00 17,7 16,0 5 3 N 1021,9
16.08.2019 23:00:00 17,7 16,0 8 4 NNW 1021,6
16.08.2019 22:00:00 18,5 15,7 2 1 E 1021,5
16.08.2019 21:00:00 20,0 14,7 4 2 SSE 1020,9
16.08.2019 20:00:00 24,2 15,3 2 1 WSW 1020,2
16.08.2019 19:00:00 26,0 15,0 4 2 SSW 1020,0
16.08.2019 18:00:00 27,1 14,4 5 3 SSE 1020,0
16.08.2019 17:00:00 27,5 15,8 9 5 SSW 1020,0
16.08.2019 16:00:00 27,8 16,7 5 3 SE 1020,1
16.08.2019 15:00:00 27,2 15,5 9 5 ESE 1020,5
16.08.2019 14:00:00 27,5 16,1 5 3 SSE 1020,8
16.08.2019 13:00:00 26,4 15,4 5 3 SE 1021,1
16.08.2019 12:00:00 25,4 15,1 4 2 NW 1021,3
16.08.2019 11:00:00 24,1 16,3 4 2 WNW 1021,5
16.08.2019 10:00:00 22,1 17,8 13 7 N 1021,2
16.08.2019 09:00:00 20,1 18,3 8 4 NE 1021,3
16.08.2019 08:00:00 17,3 15,6 2 1 W 1021,5
16.08.2019 07:00:00 15,9 14,2 5 3 WNW 1020,6
16.08.2019 06:00:00 16,3 14,6 5 3 W 1020,3
16.08.2019 05:00:00 16,7 15,0 0 0 N 1020,1
16.08.2019 04:00:00 16,9 15,2 11 6 NNW 1019,7
16.08.2019 03:00:00 17,0 15,3 4 2 NW 1021,2
16.08.2019 02:00:00 18,3 15,8 11 6 W 1021,5
16.08.2019 01:00:00 19,6 16,0 9 5 NNW 1020,7
16.08.2019 00:00:00 19,0 16,4 9 5 NNE 1019,9
15.08.2019 23:00:00 17,0 14,4 0 0 N 1019,0
15.08.2019 22:00:00 18,1 14,1 2 1 E 1018,9
15.08.2019 21:00:00 19,3 14,0 4 2 ESE 1018,4
15.08.2019 20:00:00 23,1 13,8 4 2 ESE 1018,1
15.08.2019 19:00:00 24,9 13,1 5 3 SE 1017,9
15.08.2019 18:00:00 25,7 13,8 8 4 S 1018,1
15.08.2019 17:00:00 26,5 14,5 11 6 SSE 1018,3
15.08.2019 16:00:00 27,0 15,0 8 4 SSE 1018,7
15.08.2019 15:00:00 26,9 11,8 9 5 SSW 1019,2
15.08.2019 14:00:00 26,7 13,7 11 6 SSE 1019,7
15.08.2019 13:00:00 26,5 14,9 4 2 SE 1020,2
15.08.2019 12:00:00 26,0 14,1 5 3 E 1020,7
15.08.2019 11:00:00 24,8 15,6 5 3 NE 1021,1
15.08.2019 10:00:00 23,1 15,6 8 4 N 1021,3
15.08.2019 09:00:00 21,6 15,4 13 7 N 1021,4
15.08.2019 08:00:00 19,7 17,0 5 3 NW 1021,3
15.08.2019 07:00:00 17,6 15,0 5 3 NNW 1021,4
15.08.2019 06:00:00 18,1 15,1 5 3 N 1021,4
15.08.2019 05:00:00 18,5 14,9 5 3 NNW 1021,4
15.08.2019 04:00:00 18,9 15,3 4 2 WNW 1021,6
15.08.2019 03:00:00 19,3 15,5 8 4 N 1021,7
15.08.2019 02:00:00 19,3 15,3 9 5 NNW 1021,9
15.08.2019 01:00:00 18,8 16,0 4 2 N 1021,8
15.08.2019 00:00:00 18,5 15,7 5 3 NNE 1021,6
14.08.2019 23:00:00 19,3 15,9 4 2 NE 1021,2
14.08.2019 22:00:00 19,6 15,0 4 2 NE 1020,8
14.08.2019 21:00:00 21,0 15,5 0 0 N 1019,9
14.08.2019 20:00:00 23,6 15,0 4 2 E 1019,3
14.08.2019 19:00:00 25,0 15,8 5 3 ESE 1018,8
14.08.2019 18:00:00 - - - - - -
14.08.2019 17:00:00 25,3 13,7 9 5 ESE 1018,8
14.08.2019 16:00:00 26,4 14,8 16 9 ESE 1018,7
14.08.2019 15:00:00 26,3 14,7 15 8 ESE 1018,8
14.08.2019 14:00:00 26,2 16,1 9 5 ESE 1019,0
14.08.2019 13:00:00 25,6 15,2 9 5 NE 1019,1
14.08.2019 12:00:00 25,6 16,1 9 5 ENE 1019,0
14.08.2019 11:00:00 24,5 15,3 22 12 NE 1018,7
14.08.2019 10:00:00 22,8 16,3 11 6 N 1018,4
14.08.2019 09:00:00 19,6 16,2 9 5 NNE 1018,1
14.08.2019 08:00:00 19,1 17,0 5 3 NNE 1017,7
14.08.2019 07:00:00 18,7 16,8 5 3 NNW 1016,8
14.08.2019 06:00:00 21,1 15,8 5 3 NNE 1017,0
14.08.2019 05:00:00 21,2 15,9 16 9 NNE 1015,1
14.08.2019 04:00:00 21,5 16,4 16 9 NNE 1015,1
14.08.2019 03:00:00 20,8 17,0 15 8 NNE 1015,4
14.08.2019 02:00:00 20,7 17,4 11 6 NNE 1014,8
14.08.2019 01:00:00 21,7 17,6 8 4 ENE 1015,1
14.08.2019 00:00:00 22,4 17,9 18 10 NNE 1015,3
13.08.2019 23:00:00 23,3 17,9 16 9 NNE 1015,6
13.08.2019 22:00:00 24,0 17,7 29 16 NNE 1013,5
13.08.2019 21:00:00 24,5 17,9 9 5 N 1014,6
13.08.2019 20:00:00 25,9 19,7 5 3 ENE 1013,4
13.08.2019 19:00:00 27,8 20,1 15 8 ENE 1013,0
13.08.2019 18:00:00 - - - - - -
13.08.2019 17:00:00 30,4 22,3 9 5 E 1013,8
13.08.2019 16:00:00 31,8 20,4 4 2 SSE 1013,9
13.08.2019 15:00:00 32,4 20,6 4 2 SSE 1014,2
13.08.2019 14:00:00 31,3 19,6 0 0 N 1014,9
13.08.2019 13:00:00 30,2 19,2 4 2 ENE 1015,3
13.08.2019 12:00:00 29,3 20,7 4 2 NE 1015,5
13.08.2019 11:00:00 26,2 21,6 5 3 N 1015,9
13.08.2019 10:00:00 24,9 20,5 5 3 NNW 1015,9
13.08.2019 09:00:00 24,3 20,6 5 3 NW 1015,8
13.08.2019 08:00:00 23,3 21,0 2 1 NNW 1015,3
13.08.2019 07:00:00 20,4 18,6 5 3 NW 1015,2
13.08.2019 06:00:00 20,6 18,8 5 3 N 1014,6
13.08.2019 05:00:00 21,1 18,6 4 2 NNW 1014,6
13.08.2019 04:00:00 22,4 19,1 9 5 NW 1014,9
13.08.2019 03:00:00 22,4 19,9 4 2 NW 1015,0
13.08.2019 02:00:00 22,8 20,3 2 1 N 1015,4
13.08.2019 01:00:00 23,3 20,0 5 3 NE 1015,7
13.08.2019 00:00:00 23,7 20,2 5 3 NNE 1016,1

tt = temperature
td = dewpoint
ff = wind speed
dd = wind direction
ppp = reduced air pressure

Next stations